createdAt,value
2018-01-21T00:02:08.619Z,67.20
2018-01-21T00:04:36.274Z,67.74
2018-01-21T00:07:03.793Z,67.63
2018-01-21T00:09:31.745Z,67.55
2018-01-21T00:11:59.367Z,68.23
2018-01-21T00:14:26.956Z,67.97
2018-01-21T00:16:54.663Z,68.25
2018-01-21T00:19:22.256Z,67.59
2018-01-21T00:21:50.219Z,68.00
2018-01-21T00:24:17.777Z,67.93
2018-01-21T00:26:45.643Z,67.60
2018-01-21T00:29:13.201Z,67.56
2018-01-21T00:31:40.813Z,67.54
2018-01-21T00:34:08.525Z,67.26
2018-01-21T00:36:36.021Z,67.58
2018-01-21T00:39:04.462Z,68.60
2018-01-21T00:41:32.021Z,67.99
2018-01-21T00:43:59.582Z,67.78
2018-01-21T00:46:27.582Z,67.41
2018-01-21T00:48:55.213Z,67.22
2018-01-21T00:51:22.769Z,68.25
2018-01-21T00:53:50.341Z,68.69
2018-01-21T00:56:17.836Z,67.69
2018-01-21T00:58:45.534Z,67.81
2018-01-21T01:01:13.111Z,68.43
2018-01-21T01:03:40.668Z,67.10
2018-01-21T01:06:08.226Z,67.43
2018-01-21T01:08:35.728Z,67.92
2018-01-21T01:11:03.441Z,67.90
2018-01-21T01:13:30.957Z,68.69
2018-01-21T01:15:58.530Z,67.93
2018-01-21T01:18:26.126Z,68.19
2018-01-21T01:20:53.725Z,68.12
2018-01-21T01:23:21.337Z,68.31
2018-01-21T01:25:48.864Z,67.54
2018-01-21T01:28:16.364Z,67.41
2018-01-21T01:30:43.900Z,68.37
2018-01-21T01:33:11.400Z,68.61
2018-01-21T01:35:38.941Z,67.62
2018-01-21T01:38:06.460Z,67.32
2018-01-21T01:40:34.071Z,67.47
2018-01-21T01:43:01.615Z,67.36
2018-01-21T01:45:29.205Z,67.09
2018-01-21T01:47:56.742Z,67.25
2018-01-21T01:50:24.291Z,67.07
2018-01-21T01:52:52.259Z,67.12
2018-01-21T01:55:19.756Z,67.79
2018-01-21T01:57:47.275Z,67.59
2018-01-21T02:00:14.861Z,67.09
2018-01-21T02:02:42.395Z,66.74
2018-01-21T02:05:10.054Z,67.45
2018-01-21T02:07:37.640Z,67.24
2018-01-21T02:10:05.175Z,66.73
2018-01-21T02:12:32.717Z,67.53
2018-01-21T02:15:00.214Z,67.63
2018-01-21T02:17:27.749Z,66.88
2018-01-21T02:19:55.264Z,67.18
2018-01-21T02:22:22.763Z,67.35
2018-01-21T02:24:50.323Z,67.25
2018-01-21T02:27:17.825Z,67.36
2018-01-21T02:29:45.353Z,67.10
2018-01-21T02:32:13.820Z,67.63
2018-01-21T02:34:41.318Z,67.93
2018-01-21T02:37:08.865Z,67.83
2018-01-21T02:39:36.390Z,68.19
2018-01-21T02:42:04.016Z,67.93
2018-01-21T02:44:31.523Z,68.12
2018-01-21T02:46:59.020Z,68.10
2018-01-21T02:49:26.546Z,67.42
2018-01-21T02:51:54.088Z,68.08
2018-01-21T02:54:21.945Z,67.77
2018-01-21T02:56:49.923Z,68.17
2018-01-21T02:59:17.416Z,68.75
2018-01-21T03:01:44.956Z,68.42
2018-01-21T03:04:12.498Z,68.03
2018-01-21T03:06:40.201Z,67.25
2018-01-21T03:09:07.748Z,67.45
2018-01-21T03:11:35.276Z,68.01
2018-01-21T03:14:02.836Z,68.07
2018-01-21T03:16:30.360Z,67.05
2018-01-21T03:18:58.159Z,67.50
2018-01-21T03:21:25.652Z,67.46
2018-01-21T03:23:53.157Z,67.43
2018-01-21T03:26:20.682Z,66.98
2018-01-21T03:28:48.192Z,67.57
2018-01-21T03:31:15.956Z,67.76
2018-01-21T03:33:43.453Z,67.51
2018-01-21T03:36:10.970Z,67.35
2018-01-21T03:38:38.531Z,67.76
2018-01-21T03:41:06.103Z,67.32
2018-01-21T03:43:33.628Z,67.75
2018-01-21T03:46:01.125Z,67.53
2018-01-21T03:48:28.664Z,66.85
2018-01-21T03:50:56.224Z,67.56
2018-01-21T03:53:23.719Z,67.32
2018-01-21T03:55:51.442Z,67.95
2018-01-21T03:58:19.208Z,67.65
2018-01-21T04:00:46.705Z,68.36
2018-01-21T04:03:14.326Z,69.05
2018-01-21T04:05:41.824Z,67.88
2018-01-21T04:08:09.373Z,68.74
2018-01-21T04:10:36.910Z,67.99
2018-01-21T04:13:04.402Z,67.57
2018-01-21T04:15:31.937Z,67.31
2018-01-21T04:17:59.474Z,66.90
2018-01-21T04:20:27.153Z,66.91
2018-01-21T04:22:54.703Z,66.79
2018-01-21T04:25:22.205Z,66.80
2018-01-21T04:27:49.736Z,66.47
2018-01-21T04:30:17.271Z,66.56
2018-01-21T04:32:45.137Z,66.03
2018-01-21T04:35:12.696Z,65.68
2018-01-21T04:37:40.188Z,65.29
2018-01-21T04:40:07.712Z,65.79
2018-01-21T04:42:35.209Z,65.51
2018-01-21T04:45:03.034Z,65.75
2018-01-21T04:47:30.529Z,65.50
2018-01-21T04:49:58.032Z,65.20
2018-01-21T04:52:25.610Z,66.08
2018-01-21T04:54:53.108Z,65.39
2018-01-21T04:57:20.649Z,65.68
2018-01-21T04:59:48.184Z,65.45
2018-01-21T05:02:15.693Z,64.38
2018-01-21T05:04:43.218Z,65.75
2018-01-21T05:07:10.720Z,66.29
2018-01-21T05:09:38.524Z,65.65
2018-01-21T05:12:06.493Z,64.77
2018-01-21T05:14:33.988Z,64.96
2018-01-21T05:17:01.516Z,65.48
2018-01-21T05:19:29.069Z,64.77
2018-01-21T05:21:56.593Z,65.26
2018-01-21T05:24:24.097Z,65.73
2018-01-21T05:26:51.601Z,64.72
2018-01-21T05:29:19.136Z,65.28
2018-01-21T05:31:46.629Z,64.62
2018-01-21T05:34:14.236Z,65.52
2018-01-21T05:36:41.729Z,64.75
2018-01-21T05:39:09.225Z,65.42
2018-01-21T05:41:36.792Z,65.62
2018-01-21T05:44:04.298Z,66.02
2018-01-21T05:46:32.117Z,65.14
2018-01-21T05:48:59.612Z,64.68
2018-01-21T05:51:27.130Z,65.00
2018-01-21T05:53:54.689Z,65.49
2018-01-21T05:56:22.185Z,64.97
2018-01-21T05:58:49.725Z,65.86
2018-01-21T06:01:17.265Z,65.40
2018-01-21T06:03:44.764Z,65.49
2018-01-21T06:06:12.289Z,64.78
2018-01-21T06:08:39.790Z,65.31
2018-01-21T06:11:07.312Z,65.61
2018-01-21T06:13:34.813Z,65.08
2018-01-21T06:16:02.317Z,64.78
2018-01-21T06:18:29.851Z,65.13
2018-01-21T06:20:57.356Z,64.41
2018-01-21T06:23:25.296Z,64.65
2018-01-21T06:25:52.788Z,64.48
2018-01-21T06:28:21.236Z,64.47
2018-01-21T06:30:48.756Z,64.34
2018-01-21T06:33:16.256Z,63.99
2018-01-21T06:35:44.115Z,64.68
2018-01-21T06:38:11.613Z,64.41
2018-01-21T06:40:39.131Z,64.82
2018-01-21T06:43:06.692Z,65.13
2018-01-21T06:45:34.192Z,64.17
2018-01-21T06:48:02.088Z,63.83
2018-01-21T06:50:29.590Z,64.45
2018-01-21T06:52:57.133Z,64.13
2018-01-21T06:55:24.690Z,63.46
2018-01-21T06:57:52.189Z,63.11
2018-01-21T07:00:19.886Z,62.55
2018-01-21T07:02:47.395Z,62.51
2018-01-21T07:05:14.928Z,63.80
2018-01-21T07:07:42.452Z,63.57
2018-01-21T07:10:09.964Z,63.97
2018-01-21T07:12:37.706Z,63.92
2018-01-21T07:15:05.208Z,63.67
2018-01-21T07:17:32.724Z,64.44
2018-01-21T07:20:00.281Z,63.96
2018-01-21T07:22:27.862Z,63.94
2018-01-21T07:24:55.513Z,63.83
2018-01-21T07:27:23.062Z,63.73
2018-01-21T07:29:50.562Z,63.44
2018-01-21T07:32:18.098Z,63.24
2018-01-21T07:34:45.601Z,63.58
2018-01-21T07:37:13.371Z,64.45
2018-01-21T07:39:40.872Z,63.69
2018-01-21T07:42:08.416Z,63.86
2018-01-21T07:44:35.975Z,63.13
2018-01-21T07:47:03.477Z,62.30
2018-01-21T07:49:31.297Z,62.06
2018-01-21T07:51:58.792Z,61.78
2018-01-21T07:54:26.284Z,61.68
2018-01-21T07:56:53.808Z,61.64
2018-01-21T07:59:21.330Z,62.02
2018-01-21T08:01:49.196Z,61.89
2018-01-21T08:04:16.689Z,61.91
2018-01-21T08:06:44.213Z,61.48
2018-01-21T08:09:11.739Z,61.08
2018-01-21T08:11:39.242Z,60.58
2018-01-21T08:14:07.014Z,61.30
2018-01-21T08:16:34.513Z,60.71
2018-01-21T08:19:02.013Z,59.93
2018-01-21T08:21:29.540Z,60.40
2018-01-21T08:23:57.043Z,59.63
2018-01-21T08:26:24.705Z,60.26
2018-01-21T08:28:52.201Z,60.88
2018-01-21T08:31:19.702Z,60.14
2018-01-21T08:36:55.277Z,59.26
2018-01-21T08:42:29.502Z,58.37
2018-01-21T08:44:58.287Z,57.97
2018-01-21T08:47:26.260Z,58.36
2018-01-21T08:49:54.944Z,58.19
2018-01-21T08:52:22.912Z,58.84
2018-01-21T08:54:58.051Z,58.32
2018-01-21T08:57:25.609Z,57.76
2018-01-21T08:59:53.123Z,57.30
2018-01-21T09:02:20.677Z,56.74
2018-01-21T09:04:48.416Z,56.63
2018-01-21T09:07:16.435Z,56.85
2018-01-21T09:09:44.019Z,55.78
2018-01-21T09:12:11.541Z,55.72
2018-01-21T09:14:39.878Z,55.78
2018-01-21T09:17:07.822Z,54.99
2018-01-21T09:19:36.474Z,53.59
2018-01-21T09:22:04.170Z,52.45
2018-01-21T09:24:31.687Z,51.37
2018-01-21T09:26:59.613Z,51.33
2018-01-21T09:29:27.349Z,51.00
2018-01-21T09:31:55.284Z,51.32
2018-01-21T09:34:22.807Z,51.89
2018-01-21T09:36:50.558Z,50.92
2018-01-21T09:39:18.233Z,41.08
2018-01-21T09:41:45.973Z,34.04
2018-01-21T09:44:13.565Z,29.84
2018-01-21T09:46:41.144Z,28.70
2018-01-21T09:49:08.959Z,27.32
2018-01-21T09:51:36.504Z,26.04
2018-01-21T09:54:04.229Z,28.73
2018-01-21T09:56:31.905Z,30.60
2018-01-21T09:58:59.508Z,32.44
2018-01-21T10:01:27.060Z,35.64
2018-01-21T10:03:54.709Z,38.30
2018-01-21T10:06:22.279Z,41.05
2018-01-21T10:08:50.562Z,43.20
2018-01-21T10:11:18.312Z,43.31
2018-01-21T10:13:45.916Z,44.03
2018-01-21T10:16:13.608Z,43.52
2018-01-21T10:18:41.513Z,39.93
2018-01-21T10:21:09.381Z,34.91
2018-01-21T10:23:37.038Z,32.78
2018-01-21T10:26:04.906Z,32.69
2018-01-21T10:28:32.516Z,36.01
2018-01-21T10:31:00.030Z,36.18
2018-01-21T10:33:27.889Z,37.80
2018-01-21T10:35:55.701Z,39.34
2018-01-21T10:38:24.340Z,39.99
2018-01-21T10:40:52.102Z,40.88
2018-01-21T10:43:19.873Z,39.46
2018-01-21T10:45:48.042Z,31.74
2018-01-21T10:48:15.805Z,24.86
2018-01-21T10:50:44.081Z,28.19
2018-01-21T10:53:12.876Z,28.27
2018-01-21T10:55:40.646Z,25.66
2018-01-21T10:58:08.499Z,22.43
2018-01-21T11:00:41.906Z,22.34
2018-01-21T11:03:10.068Z,22.20
2018-01-21T11:05:37.936Z,21.33
2018-01-21T11:08:05.705Z,23.45
2018-01-21T11:10:33.585Z,20.42
2018-01-21T11:13:01.354Z,18.41
2018-01-21T11:15:29.299Z,20.76
2018-01-21T11:17:57.061Z,23.54
2018-01-21T11:20:25.030Z,21.01
2018-01-21T11:22:52.793Z,20.88
2018-01-21T11:25:20.566Z,21.87
2018-01-21T11:27:48.551Z,21.32
2018-01-21T11:30:16.139Z,23.97
2018-01-21T11:32:43.951Z,22.14
2018-01-21T11:35:11.560Z,22.31
2018-01-21T11:37:39.196Z,25.39
2018-01-21T11:40:07.866Z,29.70
2018-01-21T11:42:35.604Z,33.75
2018-01-21T11:45:03.387Z,36.08
2018-01-21T11:47:31.052Z,38.96
2018-01-21T11:49:58.606Z,39.81
2018-01-21T11:52:26.642Z,41.17
2018-01-21T11:54:54.441Z,41.76
2018-01-21T11:57:22.223Z,42.73
2018-01-21T11:59:50.073Z,42.17
2018-01-21T12:02:17.689Z,42.83
2018-01-21T12:04:45.296Z,42.15
2018-01-21T12:07:13.056Z,41.65
2018-01-21T12:09:40.868Z,41.21
2018-01-21T12:12:08.663Z,40.07
2018-01-21T12:14:36.360Z,39.91
2018-01-21T12:17:04.519Z,40.39
2018-01-21T12:19:32.318Z,40.55
2018-01-21T12:22:00.051Z,40.52
2018-01-21T12:24:27.915Z,40.67
2018-01-21T12:26:55.991Z,39.55
2018-01-21T12:29:24.368Z,38.92
2018-01-21T12:31:52.167Z,39.17
2018-01-21T12:34:20.130Z,37.76
2018-01-21T12:36:47.760Z,36.72
2018-01-21T12:39:15.799Z,36.85
2018-01-21T12:41:43.800Z,34.42
2018-01-21T12:44:11.624Z,35.03
2018-01-21T12:46:39.331Z,36.06
2018-01-21T12:49:07.764Z,36.98
2018-01-21T12:51:35.381Z,37.79
2018-01-21T12:54:03.228Z,38.90
2018-01-21T12:56:30.833Z,40.07
2018-01-21T12:58:58.349Z,40.63
2018-01-21T13:01:25.943Z,40.53
2018-01-21T13:03:53.466Z,41.19
2018-01-21T13:06:21.016Z,41.44
2018-01-21T13:08:48.537Z,42.02
2018-01-21T13:11:16.041Z,41.79
2018-01-21T13:13:43.622Z,41.44
2018-01-21T13:16:11.120Z,41.69
2018-01-21T13:18:38.901Z,41.78
2018-01-21T13:21:06.419Z,41.94
2018-01-21T13:23:33.920Z,42.61
2018-01-21T13:26:01.441Z,42.96
2018-01-21T13:28:28.973Z,43.59
2018-01-21T13:30:56.513Z,43.21
2018-01-21T13:33:24.027Z,43.69
2018-01-21T13:35:51.552Z,42.66
2018-01-21T13:38:19.086Z,42.24
2018-01-21T13:40:46.864Z,42.15
2018-01-21T13:43:14.563Z,41.56
2018-01-21T13:45:42.091Z,42.38
2018-01-21T13:48:09.838Z,40.45
2018-01-21T13:50:37.552Z,40.69
2018-01-21T13:53:05.162Z,40.73
2018-01-21T13:55:32.875Z,40.69
2018-01-21T13:58:00.391Z,40.16
2018-01-21T14:00:27.958Z,40.39
2018-01-21T14:02:55.808Z,41.21
2018-01-21T14:05:23.315Z,41.01
2018-01-21T14:07:50.821Z,42.54
2018-01-21T14:10:18.475Z,43.00
2018-01-21T14:12:46.147Z,43.48
2018-01-21T14:15:13.705Z,42.91
2018-01-21T14:17:41.566Z,42.49
2018-01-21T14:20:09.183Z,42.65
2018-01-21T14:22:36.792Z,42.22
2018-01-21T14:25:04.762Z,43.26
2018-01-21T14:27:32.731Z,43.71
2018-01-21T14:30:00.260Z,43.29
2018-01-21T14:32:29.070Z,43.80
2018-01-21T14:34:56.715Z,43.61
2018-01-21T14:37:24.313Z,43.86
2018-01-21T14:39:51.959Z,42.98
2018-01-21T14:42:19.723Z,43.03
2018-01-21T14:44:47.364Z,42.95
2018-01-21T14:47:15.146Z,42.67
2018-01-21T14:49:42.764Z,42.60
2018-01-21T14:52:10.617Z,42.36
2018-01-21T14:54:38.543Z,42.53
2018-01-21T14:57:06.309Z,43.06
2018-01-21T14:59:33.973Z,42.88
2018-01-21T15:02:01.630Z,43.15
2018-01-21T15:04:29.353Z,43.21
2018-01-21T15:06:57.033Z,43.04
2018-01-21T15:09:24.616Z,43.54
2018-01-21T15:11:53.198Z,44.01
2018-01-21T15:14:20.961Z,43.95
2018-01-21T15:16:48.549Z,43.62
2018-01-21T15:19:16.097Z,44.68
2018-01-21T15:21:43.686Z,44.27
2018-01-21T15:24:11.402Z,44.47
2018-01-21T15:26:39.159Z,44.76
2018-01-21T15:29:06.724Z,44.59
2018-01-21T15:31:35.212Z,44.42
2018-01-21T15:34:02.973Z,44.66
2018-01-21T15:36:30.631Z,45.17
2018-01-21T15:38:58.504Z,45.28
2018-01-21T15:41:26.980Z,45.05
2018-01-21T15:43:54.652Z,45.69
2018-01-21T15:46:22.315Z,45.73
2018-01-21T15:48:50.061Z,46.08
2018-01-21T15:51:18.252Z,47.52
2018-01-21T15:53:46.212Z,48.43
2018-01-21T15:56:13.994Z,48.53
2018-01-21T15:58:42.759Z,49.09
2018-01-21T16:01:11.457Z,49.10
2018-01-21T16:03:39.853Z,50.22
2018-01-21T16:06:07.792Z,49.47
2018-01-21T16:08:35.658Z,49.38
2018-01-21T16:11:04.291Z,49.82
2018-01-21T16:13:31.974Z,49.94
2018-01-21T16:15:59.873Z,49.81
2018-01-21T16:18:28.025Z,49.57
2018-01-21T16:20:56.638Z,49.36
2018-01-21T16:23:25.825Z,50.05
2018-01-21T16:25:53.447Z,50.74
2018-01-21T16:28:21.660Z,50.79
2018-01-21T16:30:49.427Z,51.03
2018-01-21T16:33:17.069Z,50.68
2018-01-21T16:35:44.865Z,51.33
2018-01-21T16:38:24.392Z,51.36
2018-01-21T16:40:52.156Z,51.34
2018-01-21T16:43:20.022Z,52.01
2018-01-21T16:45:47.899Z,52.30
2018-01-21T16:48:16.061Z,52.87
2018-01-21T16:50:44.439Z,53.02
2018-01-21T16:53:12.408Z,52.98
2018-01-21T16:55:40.013Z,52.42
2018-01-21T16:58:07.936Z,53.25
2018-01-21T17:00:35.762Z,53.88
2018-01-21T17:03:03.579Z,54.79
2018-01-21T17:05:31.276Z,54.47
2018-01-21T17:07:58.994Z,54.59
2018-01-21T17:10:26.960Z,54.86
2018-01-21T17:12:54.832Z,54.83
2018-01-21T17:15:23.204Z,55.34
2018-01-21T17:17:51.050Z,55.22
2018-01-21T17:20:18.937Z,55.69
2018-01-21T17:22:46.844Z,55.25
2018-01-21T17:25:14.357Z,55.28
2018-01-21T17:27:41.873Z,55.19
2018-01-21T17:30:09.411Z,55.87
2018-01-21T17:32:36.934Z,55.36
2018-01-21T17:35:04.790Z,54.86
2018-01-21T17:37:32.466Z,54.64
2018-01-21T17:40:00.026Z,55.68
2018-01-21T17:42:27.812Z,55.45
2018-01-21T17:44:55.551Z,55.33
2018-01-21T17:47:23.624Z,53.44
2018-01-21T17:49:51.490Z,54.42
2018-01-21T17:52:19.259Z,56.28
2018-01-21T17:54:47.030Z,56.49
2018-01-21T17:57:14.893Z,56.67
2018-01-21T17:59:42.751Z,56.41
2018-01-21T18:02:10.739Z,56.99
2018-01-21T18:04:38.500Z,57.72
2018-01-21T18:07:06.349Z,58.21
2018-01-21T18:09:34.274Z,57.47
2018-01-21T18:12:02.696Z,57.58
2018-01-21T18:14:30.661Z,57.20
2018-01-21T18:16:58.530Z,57.00
2018-01-21T18:19:26.500Z,57.22
2018-01-21T18:21:54.534Z,57.39
2018-01-21T18:24:22.848Z,57.07
2018-01-21T18:26:50.528Z,56.99
2018-01-21T18:29:18.379Z,57.26
2018-01-21T18:31:46.141Z,57.25
2018-01-21T18:34:13.990Z,57.91
2018-01-21T18:36:41.872Z,57.85
2018-01-21T18:39:11.068Z,57.67
2018-01-21T18:41:38.936Z,57.75
2018-01-21T18:44:07.212Z,57.17
2018-01-21T18:46:34.974Z,57.10
2018-01-21T18:49:03.059Z,57.10
2018-01-21T18:51:30.914Z,56.97
2018-01-21T18:53:58.779Z,56.59
2018-01-21T18:56:26.544Z,56.54
2018-01-21T18:58:54.188Z,56.27
2018-01-21T19:01:22.587Z,56.20
2018-01-21T19:03:50.605Z,56.33
2018-01-21T19:06:19.441Z,57.23
2018-01-21T19:08:47.275Z,56.59
2018-01-21T19:11:15.070Z,56.81
2018-01-21T19:13:42.946Z,56.85
2018-01-21T19:16:10.714Z,56.63
2018-01-21T19:18:38.569Z,56.68
2018-01-21T19:21:06.333Z,56.86
2018-01-21T19:23:34.100Z,56.49
2018-01-21T19:26:02.073Z,56.34
2018-01-21T19:28:29.731Z,56.37
2018-01-21T19:30:57.490Z,56.44
2018-01-21T19:33:25.153Z,56.43
2018-01-21T19:35:53.263Z,56.33
2018-01-21T19:38:26.709Z,56.17
2018-01-21T19:40:54.383Z,56.40
2018-01-21T19:43:23.054Z,56.76
2018-01-21T19:45:50.946Z,56.34
2018-01-21T19:48:18.800Z,56.19
2018-01-21T19:50:46.770Z,56.82
2018-01-21T19:53:15.052Z,57.09
2018-01-21T19:55:42.912Z,56.76
2018-01-21T19:58:10.891Z,56.51
2018-01-21T20:00:38.465Z,56.53
2018-01-21T20:03:06.408Z,56.95
2018-01-21T20:05:34.128Z,56.44
2018-01-21T20:08:01.935Z,56.45
2018-01-21T20:10:29.617Z,56.06
2018-01-21T20:12:58.694Z,56.55
2018-01-21T20:15:26.355Z,56.70
2018-01-21T20:17:54.022Z,56.60
2018-01-21T20:20:22.252Z,56.49
2018-01-21T20:22:50.057Z,56.45
2018-01-21T20:25:17.832Z,56.79
2018-01-21T20:27:45.788Z,57.19
2018-01-21T20:30:13.654Z,57.04
2018-01-21T20:32:42.135Z,56.85
2018-01-21T20:35:10.207Z,57.16
2018-01-21T20:37:38.942Z,57.60
2018-01-21T20:40:07.035Z,57.03
2018-01-21T20:42:34.841Z,56.49
2018-01-21T20:45:02.810Z,56.39
2018-01-21T20:47:31.184Z,56.15
2018-01-21T20:49:59.042Z,56.57
2018-01-21T20:52:32.951Z,56.50
2018-01-21T20:55:00.816Z,56.48
2018-01-21T20:57:29.194Z,56.07
2018-01-21T20:59:57.062Z,56.24
2018-01-21T21:02:24.926Z,56.34
2018-01-21T21:04:52.690Z,56.41
2018-01-21T21:07:20.562Z,56.30
2018-01-21T21:09:48.333Z,56.49
2018-01-21T21:12:16.085Z,56.54
2018-01-21T21:14:43.952Z,56.21
2018-01-21T21:17:11.715Z,56.38
2018-01-21T21:19:39.581Z,55.79
2018-01-21T21:22:07.164Z,57.06
2018-01-21T21:24:34.729Z,56.14
2018-01-21T21:27:02.264Z,56.86
2018-01-21T21:29:29.823Z,56.37
2018-01-21T21:31:57.464Z,55.45
2018-01-21T21:34:25.305Z,55.37
2018-01-21T21:36:52.904Z,55.75
2018-01-21T21:39:20.422Z,55.68
2018-01-21T21:41:47.948Z,55.74
2018-01-21T21:44:15.689Z,55.32
2018-01-21T21:46:43.634Z,54.58
2018-01-21T21:49:11.144Z,54.81
2018-01-21T21:51:38.675Z,54.61
2018-01-21T21:54:06.285Z,54.48
2018-01-21T21:56:34.640Z,54.61
2018-01-21T21:59:02.649Z,54.60
2018-01-21T22:01:30.236Z,54.69
2018-01-21T22:03:57.757Z,54.63
2018-01-21T22:06:25.495Z,55.44
2018-01-21T22:08:53.064Z,54.75
2018-01-21T22:11:20.866Z,55.65
2018-01-21T22:13:48.394Z,55.87
2018-01-21T22:16:16.327Z,55.66
2018-01-21T22:18:44.686Z,55.17
2018-01-21T22:21:12.204Z,55.86
2018-01-21T22:23:40.097Z,56.08
2018-01-21T22:26:07.608Z,57.34
2018-01-21T22:28:35.108Z,57.27
2018-01-21T22:31:02.642Z,56.87
2018-01-21T22:33:30.145Z,57.66
2018-01-21T22:35:59.136Z,58.29
2018-01-21T22:38:26.632Z,58.00
2018-01-21T22:40:54.138Z,59.17
2018-01-21T22:43:21.715Z,59.50
2018-01-21T22:45:50.190Z,60.90
2018-01-21T22:48:17.843Z,60.61
2018-01-21T22:50:45.411Z,60.81
2018-01-21T22:53:13.316Z,61.36
2018-01-21T22:55:40.871Z,62.88
2018-01-21T22:58:08.395Z,62.39
2018-01-21T23:00:36.363Z,61.83
2018-01-21T23:03:03.860Z,62.70
2018-01-21T23:05:31.366Z,63.33
2018-01-21T23:07:59.369Z,63.91
2018-01-21T23:10:27.420Z,64.30
2018-01-21T23:12:55.012Z,65.05
2018-01-21T23:15:22.543Z,64.23
2018-01-21T23:17:50.073Z,63.81
2018-01-21T23:23:28.115Z,64.31
2018-01-21T23:25:55.680Z,65.11
2018-01-21T23:28:23.957Z,65.62
2018-01-21T23:30:51.472Z,65.86
2018-01-21T23:33:19.022Z,66.54
2018-01-21T23:35:46.530Z,66.37
2018-01-21T23:38:15.297Z,66.89
2018-01-21T23:40:45.049Z,67.16
2018-01-21T23:43:13.014Z,67.41
2018-01-21T23:45:41.080Z,67.47
2018-01-21T23:48:08.703Z,66.39
2018-01-21T23:50:36.700Z,66.84
2018-01-21T23:53:04.257Z,67.74
2018-01-21T23:55:44.992Z,67.61
2018-01-21T23:58:12.496Z,68.00
